sensor_id;sensor_type;location;lat;lon;timestamp;pressure;altitude;pressure_sealevel;temperature;humidity
56334;BME280;42240;53.626;55.886;2022-12-11T00:00:47;80826.25;;;-145.10;100.00
56334;BME280;42240;53.626;55.886;2022-12-11T00:02:21;80820.31;;;-145.10;100.00
56334;BME280;42240;53.626;55.886;2022-12-11T00:03:54;80808.44;;;-145.10;100.00
56334;BME280;42240;53.626;55.886;2022-12-11T00:05:28;80800.53;;;-145.10;100.00
56334;BME280;42240;53.626;55.886;2022-12-11T00:07:02;80786.66;;;-145.10;100.00
56334;BME280;42240;53.626;55.886;2022-12-11T00:08:36;80798.53;;;-145.10;100.00
56334;BME280;42240;53.626;55.886;2022-12-11T00:10:09;80786.66;;;-145.10;100.00
56334;BME280;42240;53.626;55.886;2022-12-11T00:11:44;80798.53;;;-145.10;100.00
56334;BME280;42240;53.626;55.886;2022-12-11T00:13:17;80794.59;;;-145.10;100.00
56334;BME280;42240;53.626;55.886;2022-12-11T00:14:51;80790.63;;;-145.10;100.00
56334;BME280;42240;53.626;55.886;2022-12-11T00:16:27;80794.59;;;-145.10;100.00
56334;BME280;42240;53.626;55.886;2022-12-11T00:18:01;80796.56;;;-145.10;100.00
56334;BME280;42240;53.626;55.886;2022-12-11T00:19:34;80794.59;;;-145.10;100.00
56334;BME280;42240;53.626;55.886;2022-12-11T00:21:12;80798.53;;;-145.10;100.00
56334;BME280;42240;53.626;55.886;2022-12-11T00:22:45;80802.50;;;-145.10;100.00
56334;BME280;42240;53.626;55.886;2022-12-11T00:24:19;80802.50;;;-145.10;100.00
56334;BME280;42240;53.626;55.886;2022-12-11T00:25:56;80834.19;;;-145.10;100.00
56334;BME280;42240;53.626;55.886;2022-12-11T00:27:29;80838.13;;;-145.10;100.00
56334;BME280;42240;53.626;55.886;2022-12-11T00:29:04;80853.97;;;-145.10;100.00
56334;BME280;42240;53.626;55.886;2022-12-11T00:30:41;80802.50;;;-145.10;100.00
56334;BME280;42240;53.626;55.886;2022-12-11T00:32:15;80816.34;;;-145.10;100.00
56334;BME280;42240;53.626;55.886;2022-12-11T00:33:49;80816.34;;;-145.10;100.00
56334;BME280;42240;53.626;55.886;2022-12-11T00:35:23;80826.25;;;-145.10;100.00
56334;BME280;42240;53.626;55.886;2022-12-11T00:36:57;80826.25;;;-145.10;100.00
56334;BME280;42240;53.626;55.886;2022-12-11T00:38:31;80828.25;;;-145.10;100.00
56334;BME280;42240;53.626;55.886;2022-12-11T00:40:05;80838.13;;;-145.10;100.00
56334;BME280;42240;53.626;55.886;2022-12-11T00:41:39;80832.19;;;-145.10;100.00
56334;BME280;42240;53.626;55.886;2022-12-11T00:43:12;80834.19;;;-145.10;100.00
56334;BME280;42240;53.626;55.886;2022-12-11T00:44:47;80846.06;;;-145.10;100.00
56334;BME280;42240;53.626;55.886;2022-12-11T00:46:20;80848.03;;;-145.10;100.00
56334;BME280;42240;53.626;55.886;2022-12-11T00:47:54;80842.09;;;-145.10;100.00
56334;BME280;42240;53.626;55.886;2022-12-11T00:49:28;80844.06;;;-145.10;100.00
56334;BME280;42240;53.626;55.886;2022-12-11T00:51:02;80853.97;;;-145.10;100.00
56334;BME280;42240;53.626;55.886;2022-12-11T00:52:35;80846.06;;;-145.10;100.00
56334;BME280;42240;53.626;55.886;2022-12-11T00:54:09;80838.13;;;-145.10;100.00
56334;BME280;42240;53.626;55.886;2022-12-11T00:55:43;80830.22;;;-145.10;100.00
56334;BME280;42240;53.626;55.886;2022-12-11T00:57:16;80826.25;;;-145.10;100.00
56334;BME280;42240;53.626;55.886;2022-12-11T00:58:50;80842.09;;;-145.10;100.00
56334;BME280;42240;53.626;55.886;2022-12-11T01:00:24;80824.28;;;-145.10;100.00
56334;BME280;42240;53.626;55.886;2022-12-11T01:01:57;80828.25;;;-145.10;100.00
56334;BME280;42240;53.626;55.886;2022-12-11T01:03:31;80834.19;;;-145.10;100.00
56334;BME280;42240;53.626;55.886;2022-12-11T01:05:05;80838.13;;;-145.10;100.00
56334;BME280;42240;53.626;55.886;2022-12-11T01:06:39;80850.00;;;-145.10;100.00
56334;BME280;42240;53.626;55.886;2022-12-11T01:08:15;80826.25;;;-145.10;100.00
56334;BME280;42240;53.626;55.886;2022-12-11T01:09:49;80824.28;;;-145.10;100.00
56334;BME280;42240;53.626;55.886;2022-12-11T01:11:41;80881.69;;;-145.10;100.00
56334;BME280;42240;53.626;55.886;2022-12-11T01:13:16;80814.38;;;-145.10;100.00
56334;BME280;42240;53.626;55.886;2022-12-11T01:14:50;80808.44;;;-145.10;100.00
56334;BME280;42240;53.626;55.886;2022-12-11T01:16:23;80804.47;;;-145.10;100.00
56334;BME280;42240;53.626;55.886;2022-12-11T01:17:56;80806.47;;;-145.10;100.00
56334;BME280;42240;53.626;55.886;2022-12-11T01:19:30;80802.50;;;-145.10;100.00
56334;BME280;42240;53.626;55.886;2022-12-11T01:21:10;80796.56;;;-145.10;100.00
56334;BME280;42240;53.626;55.886;2022-12-11T01:22:45;80794.59;;;-145.10;100.00
56334;BME280;42240;53.626;55.886;2022-12-11T01:24:22;80806.47;;;-145.10;100.00
56334;BME280;42240;53.626;55.886;2022-12-11T01:25:55;80806.47;;;-145.10;100.00
56334;BME280;42240;53.626;55.886;2022-12-11T01:27:29;80806.47;;;-145.10;100.00
56334;BME280;42240;53.626;55.886;2022-12-11T01:29:03;80802.50;;;-145.10;100.00
56334;BME280;42240;53.626;55.886;2022-12-11T01:30:36;80836.16;;;-145.10;100.00
56334;BME280;42240;53.626;55.886;2022-12-11T01:32:10;80800.53;;;-145.10;100.00
56334;BME280;42240;53.626;55.886;2022-12-11T01:33:44;80796.56;;;-145.10;100.00
56334;BME280;42240;53.626;55.886;2022-12-11T01:35:18;80798.53;;;-145.10;100.00
56334;BME280;42240;53.626;55.886;2022-12-11T01:36:55;80794.59;;;-145.10;100.00
56334;BME280;42240;53.626;55.886;2022-12-11T01:38:29;80786.66;;;-145.10;100.00
56334;BME280;42240;53.626;55.886;2022-12-11T01:40:04;80800.53;;;-145.10;100.00
56334;BME280;42240;53.626;55.886;2022-12-11T01:41:38;80800.53;;;-145.10;100.00
56334;BME280;42240;53.626;55.886;2022-12-11T01:43:12;80790.63;;;-145.10;100.00
56334;BME280;42240;53.626;55.886;2022-12-11T01:46:19;80796.56;;;-145.10;100.00
56334;BME280;42240;53.626;55.886;2022-12-11T01:48:08;80796.56;;;-145.10;100.00
56334;BME280;42240;53.626;55.886;2022-12-11T01:49:43;80790.63;;;-145.10;100.00
56334;BME280;42240;53.626;55.886;2022-12-11T01:51:22;80792.59;;;-145.10;100.00
56334;BME280;42240;53.626;55.886;2022-12-11T01:52:56;80792.59;;;-145.10;100.00
56334;BME280;42240;53.626;55.886;2022-12-11T01:54:30;80794.59;;;-145.10;100.00
56334;BME280;42240;53.626;55.886;2022-12-11T01:56:05;80818.34;;;-145.10;100.00
56334;BME280;42240;53.626;55.886;2022-12-11T01:57:42;80802.50;;;-145.10;100.00
56334;BME280;42240;53.626;55.886;2022-12-11T01:59:21;80804.47;;;-145.10;100.00
56334;BME280;42240;53.626;55.886;2022-12-11T02:00:57;80810.41;;;-145.10;100.00
56334;BME280;42240;53.626;55.886;2022-12-11T02:02:32;80812.41;;;-145.10;100.00
56334;BME280;42240;53.626;55.886;2022-12-11T02:04:07;80814.38;;;-145.10;100.00
56334;BME280;42240;53.626;55.886;2022-12-11T02:05:41;80812.41;;;-145.10;100.00
56334;BME280;42240;53.626;55.886;2022-12-11T02:07:15;80806.47;;;-145.10;100.00
56334;BME280;42240;53.626;55.886;2022-12-11T02:08:49;80816.34;;;-145.10;100.00
56334;BME280;42240;53.626;55.886;2022-12-11T02:10:30;80818.34;;;-145.10;100.00
56334;BME280;42240;53.626;55.886;2022-12-11T02:12:35;80820.31;;;-145.10;100.00
56334;BME280;42240;53.626;55.886;2022-12-11T02:16:19;80822.28;;;-145.10;100.00
56334;BME280;42240;53.626;55.886;2022-12-11T02:19:53;80810.41;;;-145.10;100.00
56334;BME280;42240;53.626;55.886;2022-12-11T02:21:42;80816.34;;;-145.10;100.00
56334;BME280;42240;53.626;55.886;2022-12-11T02:23:37;80800.53;;;-145.10;100.00
56334;BME280;42240;53.626;55.886;2022-12-11T02:27:22;80784.69;;;-145.10;100.00
56334;BME280;42240;53.626;55.886;2022-12-11T02:29:07;80774.78;;;-145.10;100.00
56334;BME280;42240;53.626;55.886;2022-12-11T02:30:49;80766.88;;;-145.10;100.00
56334;BME280;42240;53.626;55.886;2022-12-11T02:32:29;80756.97;;;-145.10;100.00
56334;BME280;42240;53.626;55.886;2022-12-11T02:35:46;80756.97;;;-145.10;100.00
56334;BME280;42240;53.626;55.886;2022-12-11T02:37:23;80743.13;;;-145.10;100.00
56334;BME280;42240;53.626;55.886;2022-12-11T02:39:00;80745.09;;;-145.10;100.00
56334;BME280;42240;53.626;55.886;2022-12-11T02:40:41;80743.13;;;-145.10;100.00
56334;BME280;42240;53.626;55.886;2022-12-11T02:42:17;80743.13;;;-145.10;100.00
56334;BME280;42240;53.626;55.886;2022-12-11T02:43:52;80755.00;;;-145.10;100.00
56334;BME280;42240;53.626;55.886;2022-12-11T02:45:28;80758.97;;;-145.10;100.00
56334;BME280;42240;53.626;55.886;2022-12-11T02:47:05;80770.84;;;-145.10;100.00
56334;BME280;42240;53.626;55.886;2022-12-11T02:48:41;80751.03;;;-145.10;100.00
56334;BME280;42240;53.626;55.886;2022-12-11T02:50:18;80745.09;;;-145.10;100.00
56334;BME280;42240;53.626;55.886;2022-12-11T02:51:54;80758.97;;;-145.10;100.00
56334;BME280;42240;53.626;55.886;2022-12-11T02:53:30;80745.09;;;-145.10;100.00
56334;BME280;42240;53.626;55.886;2022-12-11T02:55:06;80774.78;;;-145.10;100.00
56334;BME280;42240;53.626;55.886;2022-12-11T02:58:32;80755.00;;;-145.10;100.00
56334;BME280;42240;53.626;55.886;2022-12-11T03:00:10;80743.13;;;-145.10;100.00
56334;BME280;42240;53.626;55.886;2022-12-11T03:01:45;80741.13;;;-145.10;100.00
56334;BME280;42240;53.626;55.886;2022-12-11T03:03:19;80764.91;;;-145.10;100.00
56334;BME280;42240;53.626;55.886;2022-12-11T03:04:54;80733.22;;;-145.10;100.00
56334;BME280;42240;53.626;55.886;2022-12-11T03:06:37;80723.31;;;-145.10;100.00
56334;BME280;42240;53.626;55.886;2022-12-11T03:08:11;80731.25;;;-145.10;100.00
56334;BME280;42240;53.626;55.886;2022-12-11T03:09:51;80731.25;;;-145.10;100.00
56334;BME280;42240;53.626;55.886;2022-12-11T03:11:25;80719.38;;;-145.10;100.00
56334;BME280;42240;53.626;55.886;2022-12-11T03:12:59;80778.75;;;-145.10;100.00
56334;BME280;42240;53.626;55.886;2022-12-11T03:14:34;80719.38;;;-145.10;100.00
56334;BME280;42240;53.626;55.886;2022-12-11T03:21:58;80737.19;;;-145.10;100.00
56334;BME280;42240;53.626;55.886;2022-12-11T03:24:16;80735.19;;;-145.10;100.00
56334;BME280;42240;53.626;55.886;2022-12-11T03:25:56;80737.19;;;-145.10;100.00
56334;BME280;42240;53.626;55.886;2022-12-11T03:27:57;80749.06;;;-145.10;100.00
56334;BME280;42240;53.626;55.886;2022-12-11T03:29:37;80733.22;;;-145.10;100.00
56334;BME280;42240;53.626;55.886;2022-12-11T03:31:20;80753.00;;;-145.10;100.00
56334;BME280;42240;53.626;55.886;2022-12-11T03:33:00;80747.06;;;-145.10;100.00
56334;BME280;42240;53.626;55.886;2022-12-11T03:34:43;80755.00;;;-145.10;100.00
56334;BME280;42240;53.626;55.886;2022-12-11T03:36:23;80751.03;;;-145.10;100.00
56334;BME280;42240;53.626;55.886;2022-12-11T03:38:00;80755.00;;;-145.10;100.00
56334;BME280;42240;53.626;55.886;2022-12-11T03:39:39;80794.59;;;-145.10;100.00
56334;BME280;42240;53.626;55.886;2022-12-11T03:41:17;80760.94;;;-145.10;100.00
56334;BME280;42240;53.626;55.886;2022-12-11T03:42:52;80762.91;;;-145.10;100.00
56334;BME280;42240;53.626;55.886;2022-12-11T03:44:30;80753.00;;;-145.10;100.00
56334;BME280;42240;53.626;55.886;2022-12-11T03:46:08;80794.59;;;-145.10;100.00
56334;BME280;42240;53.626;55.886;2022-12-11T03:47:45;80766.88;;;-145.10;100.00
56334;BME280;42240;53.626;55.886;2022-12-11T03:49:22;80766.88;;;-145.10;100.00
56334;BME280;42240;53.626;55.886;2022-12-11T03:50:58;80776.78;;;-145.10;100.00
56334;BME280;42240;53.626;55.886;2022-12-11T03:52:33;80778.75;;;-145.10;100.00
56334;BME280;42240;53.626;55.886;2022-12-11T03:54:15;80784.69;;;-145.10;100.00
56334;BME280;42240;53.626;55.886;2022-12-11T03:55:50;80782.72;;;-145.10;100.00
56334;BME280;42240;53.626;55.886;2022-12-11T03:57:28;80780.72;;;-145.10;100.00
56334;BME280;42240;53.626;55.886;2022-12-11T03:59:03;80790.63;;;-145.10;100.00
56334;BME280;42240;53.626;55.886;2022-12-11T04:00:37;80786.66;;;-145.10;100.00
56334;BME280;42240;53.626;55.886;2022-12-11T04:02:10;80786.66;;;-145.10;100.00
56334;BME280;42240;53.626;55.886;2022-12-11T04:03:44;80788.66;;;-145.10;100.00
56334;BME280;42240;53.626;55.886;2022-12-11T04:05:23;80786.66;;;-145.10;100.00
56334;BME280;42240;53.626;55.886;2022-12-11T04:06:57;80786.66;;;-145.10;100.00
56334;BME280;42240;53.626;55.886;2022-12-11T04:08:31;80782.72;;;-145.10;100.00
56334;BME280;42240;53.626;55.886;2022-12-11T04:10:05;80776.78;;;-145.10;100.00
56334;BME280;42240;53.626;55.886;2022-12-11T04:11:39;80782.72;;;-145.10;100.00
56334;BME280;42240;53.626;55.886;2022-12-11T04:13:15;80776.78;;;-145.10;100.00
56334;BME280;42240;53.626;55.886;2022-12-11T04:14:48;80774.78;;;-145.10;100.00
56334;BME280;42240;53.626;55.886;2022-12-11T04:16:36;80762.91;;;-145.10;100.00
56334;BME280;42240;53.626;55.886;2022-12-11T04:18:09;80766.88;;;-145.10;100.00
56334;BME280;42240;53.626;55.886;2022-12-11T04:20:03;80758.97;;;-145.10;100.00
56334;BME280;42240;53.626;55.886;2022-12-11T04:21:56;80758.97;;;-145.10;100.00
56334;BME280;42240;53.626;55.886;2022-12-11T04:23:48;80758.97;;;-145.10;100.00
56334;BME280;42240;53.626;55.886;2022-12-11T04:25:41;80790.63;;;-145.10;100.00
56334;BME280;42240;53.626;55.886;2022-12-11T04:27:15;80739.16;;;-145.10;100.00
56334;BME280;42240;53.626;55.886;2022-12-11T04:29:07;80741.13;;;-145.10;100.00
56334;BME280;42240;53.626;55.886;2022-12-11T04:30:47;80741.13;;;-145.10;100.00
56334;BME280;42240;53.626;55.886;2022-12-11T04:32:22;80741.13;;;-145.10;100.00
56334;BME280;42240;53.626;55.886;2022-12-11T04:33:55;80741.13;;;-145.10;100.00
56334;BME280;42240;53.626;55.886;2022-12-11T04:35:28;80743.13;;;-145.10;100.00
56334;BME280;42240;53.626;55.886;2022-12-11T04:37:03;80741.13;;;-145.10;100.00
56334;BME280;42240;53.626;55.886;2022-12-11T04:38:36;80739.16;;;-145.10;100.00
56334;BME280;42240;53.626;55.886;2022-12-11T04:40:12;80727.28;;;-145.10;100.00
56334;BME280;42240;53.626;55.886;2022-12-11T04:41:46;80719.38;;;-145.10;100.00
56334;BME280;42240;53.626;55.886;2022-12-11T04:43:20;80719.38;;;-145.10;100.00
56334;BME280;42240;53.626;55.886;2022-12-11T04:44:53;80711.44;;;-145.10;100.00
56334;BME280;42240;53.626;55.886;2022-12-11T04:46:30;80711.44;;;-145.10;100.00
56334;BME280;42240;53.626;55.886;2022-12-11T04:48:04;80679.78;;;-145.10;100.00
56334;BME280;42240;53.626;55.886;2022-12-11T04:49:37;80652.06;;;-145.10;100.00
56334;BME280;42240;53.626;55.886;2022-12-11T04:51:12;80632.28;;;-145.10;100.00
56334;BME280;42240;53.626;55.886;2022-12-11T04:52:46;80616.44;;;-145.10;100.00
56334;BME280;42240;53.626;55.886;2022-12-11T04:54:20;80606.53;;;-145.10;100.00
56334;BME280;42240;53.626;55.886;2022-12-11T04:55:54;80580.81;;;-145.10;100.00
56334;BME280;42240;53.626;55.886;2022-12-11T04:57:28;80529.34;;;-145.10;100.00
56334;BME280;42240;53.626;55.886;2022-12-11T04:59:02;80428.41;;;-145.10;100.00
56334;BME280;42240;53.626;55.886;2022-12-11T05:00:36;80359.13;;;-145.10;100.00
56334;BME280;42240;53.626;55.886;2022-12-11T05:02:10;80335.38;;;-145.10;100.00
56334;BME280;42240;53.626;55.886;2022-12-11T05:03:44;80315.59;;;-145.10;100.00
56334;BME280;42240;53.626;55.886;2022-12-11T05:05:17;80287.88;;;-145.10;100.00
56334;BME280;42240;53.626;55.886;2022-12-11T05:06:51;80283.91;;;-145.10;100.00
56334;BME280;42240;53.626;55.886;2022-12-11T05:08:27;80270.06;;;-145.10;100.00
56334;BME280;42240;53.626;55.886;2022-12-11T05:10:02;80242.34;;;-145.10;100.00
56334;BME280;42240;53.626;55.886;2022-12-11T05:11:37;80258.19;;;-145.10;100.00
56334;BME280;42240;53.626;55.886;2022-12-11T05:13:10;80279.97;;;-145.10;99.76
56334;BME280;42240;53.626;55.886;2022-12-11T05:14:44;80303.72;;;-145.10;99.11
56334;BME280;42240;53.626;55.886;2022-12-11T05:16:17;80289.84;;;-145.10;99.34
56334;BME280;42240;53.626;55.886;2022-12-11T05:17:51;80276.00;;;-145.10;99.29
56334;BME280;42240;53.626;55.886;2022-12-11T05:19:25;80311.63;;;-145.10;98.86
56334;BME280;42240;53.626;55.886;2022-12-11T05:21:00;80309.66;;;-145.10;99.47
56334;BME280;42240;53.626;55.886;2022-12-11T05:22:36;80283.91;;;-145.10;98.72
56334;BME280;42240;53.626;55.886;2022-12-11T05:24:09;80295.78;;;-145.10;98.14
56334;BME280;42240;53.626;55.886;2022-12-11T05:25:50;80313.59;;;-145.10;98.06
56334;BME280;42240;53.626;55.886;2022-12-11T05:27:24;80264.13;;;-145.10;97.83
56334;BME280;42240;53.626;55.886;2022-12-11T05:28:58;80232.44;;;-145.10;97.39
56334;BME280;42240;53.626;55.886;2022-12-11T05:30:32;80220.56;;;-145.10;95.62
56334;BME280;42240;53.626;55.886;2022-12-11T05:32:06;80173.09;;;-145.10;95.81
56334;BME280;42240;53.626;55.886;2022-12-11T05:33:39;80149.34;;;-145.10;95.64
56334;BME280;42240;53.626;55.886;2022-12-11T05:35:14;80133.50;;;-145.10;93.37
56334;BME280;42240;53.626;55.886;2022-12-11T05:36:47;80080.06;;;-145.10;92.54
56334;BME280;42240;53.626;55.886;2022-12-11T05:38:21;80050.38;;;-145.10;91.50
56334;BME280;42240;53.626;55.886;2022-12-11T05:39:55;80034.53;;;-145.10;90.50
56334;BME280;42240;53.626;55.886;2022-12-11T05:41:30;80066.22;;;-145.10;89.55
56334;BME280;42240;53.626;55.886;2022-12-11T05:43:04;80078.09;;;-145.10;89.77
56334;BME280;42240;53.626;55.886;2022-12-11T05:44:38;80109.75;;;-145.10;89.53
56334;BME280;42240;53.626;55.886;2022-12-11T05:46:15;80095.91;;;-145.10;89.86
56334;BME280;42240;53.626;55.886;2022-12-11T05:47:48;80105.78;;;-145.10;88.88
56334;BME280;42240;53.626;55.886;2022-12-11T05:49:25;80127.56;;;-145.10;89.16
56334;BME280;42240;53.626;55.886;2022-12-11T05:51:03;80153.28;;;-145.10;89.06
56334;BME280;42240;53.626;55.886;2022-12-11T05:52:37;80169.13;;;-145.10;89.94
56334;BME280;42240;53.626;55.886;2022-12-11T05:54:11;80194.84;;;-145.10;90.66
56334;BME280;42240;53.626;55.886;2022-12-11T05:55:44;80200.78;;;-145.10;90.31
56334;BME280;42240;53.626;55.886;2022-12-11T05:57:18;80202.78;;;-145.10;90.82
56334;BME280;42240;53.626;55.886;2022-12-11T05:58:53;80184.97;;;-145.10;91.17
56334;BME280;42240;53.626;55.886;2022-12-11T06:00:27;80184.97;;;-145.10;90.26
56334;BME280;42240;53.626;55.886;2022-12-11T06:02:07;80173.09;;;-145.10;90.38
56334;BME280;42240;53.626;55.886;2022-12-11T06:03:41;80161.22;;;-145.10;90.85
56334;BME280;42240;53.626;55.886;2022-12-11T06:05:15;80161.22;;;-145.10;90.40
56334;BME280;42240;53.626;55.886;2022-12-11T06:06:49;80087.97;;;-145.10;89.83
56334;BME280;42240;53.626;55.886;2022-12-11T06:08:23;80084.03;;;-145.10;88.64
56334;BME280;42240;53.626;55.886;2022-12-11T06:09:56;80117.66;;;-145.10;88.42
56334;BME280;42240;53.626;55.886;2022-12-11T06:11:31;80119.63;;;-145.10;88.11
56334;BME280;42240;53.626;55.886;2022-12-11T06:13:08;80097.88;;;-145.10;87.37
56334;BME280;42240;53.626;55.886;2022-12-11T06:14:43;80058.28;;;-145.10;88.38
56334;BME280;42240;53.626;55.886;2022-12-11T06:16:16;80084.03;;;-145.10;87.85
56334;BME280;42240;53.626;55.886;2022-12-11T06:17:56;80097.88;;;-145.10;87.56
56334;BME280;42240;53.626;55.886;2022-12-11T06:19:30;80125.59;;;-145.10;87.55
56334;BME280;42240;53.626;55.886;2022-12-11T06:21:17;80095.91;;;-145.10;88.42
56334;BME280;42240;53.626;55.886;2022-12-11T06:22:51;80109.75;;;-145.10;88.48
56334;BME280;42240;53.626;55.886;2022-12-11T06:24:25;80086.00;;;-145.10;89.45
56334;BME280;42240;53.626;55.886;2022-12-11T06:25:59;80111.72;;;-145.10;89.26
56334;BME280;42240;53.626;55.886;2022-12-11T06:27:32;80131.50;;;-145.10;89.72
56334;BME280;42240;53.626;55.886;2022-12-11T06:29:06;80173.09;;;-145.10;90.22
56334;BME280;42240;53.626;55.886;2022-12-11T06:30:44;80161.22;;;-145.10;91.62
56334;BME280;42240;53.626;55.886;2022-12-11T06:32:19;80202.78;;;-145.10;91.92
56334;BME280;42240;53.626;55.886;2022-12-11T06:33:52;80177.03;;;-145.10;93.36
56334;BME280;42240;53.626;55.886;2022-12-11T06:35:26;80194.84;;;-145.10;92.67
56334;BME280;42240;53.626;55.886;2022-12-11T06:37:00;80202.78;;;-145.10;93.12
56334;BME280;42240;53.626;55.886;2022-12-11T06:38:34;80214.66;;;-145.10;93.52
56334;BME280;42240;53.626;55.886;2022-12-11T06:40:09;80208.72;;;-145.10;94.48
56334;BME280;42240;53.626;55.886;2022-12-11T06:41:44;80222.56;;;-145.10;94.87
56334;BME280;42240;53.626;55.886;2022-12-11T06:43:18;80200.78;;;-145.10;94.98
56334;BME280;42240;53.626;55.886;2022-12-11T06:44:51;80240.38;;;-145.10;94.68
56334;BME280;42240;53.626;55.886;2022-12-11T06:46:25;80238.41;;;-145.10;95.73
56334;BME280;42240;53.626;55.886;2022-12-11T06:47:58;80238.41;;;-145.10;96.20
56334;BME280;42240;53.626;55.886;2022-12-11T06:49:33;80214.66;;;-145.10;96.26
56334;BME280;42240;53.626;55.886;2022-12-11T06:51:09;80216.63;;;-145.10;96.48
56334;BME280;42240;53.626;55.886;2022-12-11T06:52:44;80220.56;;;-145.10;96.20
56334;BME280;42240;53.626;55.886;2022-12-11T06:54:18;80216.63;;;-145.10;96.41
56334;BME280;42240;53.626;55.886;2022-12-11T06:55:51;80204.75;;;-145.10;96.79
56334;BME280;42240;53.626;55.886;2022-12-11T06:57:25;80212.66;;;-145.10;96.84
56334;BME280;42240;53.626;55.886;2022-12-11T06:58:58;80190.88;;;-145.10;96.50
56334;BME280;42240;53.626;55.886;2022-12-11T07:00:38;80173.09;;;-145.10;96.28
56334;BME280;42240;53.626;55.886;2022-12-11T07:02:13;80137.47;;;-145.10;96.34
56334;BME280;42240;53.626;55.886;2022-12-11T07:03:48;80117.66;;;-145.10;96.42
56334;BME280;42240;53.626;55.886;2022-12-11T07:05:22;80121.63;;;-145.10;95.36
56334;BME280;42240;53.626;55.886;2022-12-11T07:06:56;80119.63;;;-145.10;94.62
56334;BME280;42240;53.626;55.886;2022-12-11T07:08:29;80101.84;;;-145.10;95.22
56334;BME280;42240;53.626;55.886;2022-12-11T07:10:04;80149.34;;;-145.10;94.52
56334;BME280;42240;53.626;55.886;2022-12-11T07:11:40;80121.63;;;-145.10;95.05
56334;BME280;42240;53.626;55.886;2022-12-11T07:13:13;80147.34;;;-145.10;95.44
56334;BME280;42240;53.626;55.886;2022-12-11T07:14:47;80113.72;;;-145.10;95.46
56334;BME280;42240;53.626;55.886;2022-12-11T07:16:21;80107.75;;;-145.10;95.64
56334;BME280;42240;53.626;55.886;2022-12-11T07:17:56;80143.38;;;-145.10;94.88
56334;BME280;42240;53.626;55.886;2022-12-11T07:19:30;80101.84;;;-145.10;96.14
56334;BME280;42240;53.626;55.886;2022-12-11T07:21:07;80123.59;;;-145.10;96.04
56334;BME280;42240;53.626;55.886;2022-12-11T07:22:42;80129.53;;;-145.10;94.94
56334;BME280;42240;53.626;55.886;2022-12-11T07:24:18;80113.72;;;-145.10;96.11
56334;BME280;42240;53.626;55.886;2022-12-11T07:25:52;80101.84;;;-145.10;95.14
56334;BME280;42240;53.626;55.886;2022-12-11T07:27:26;80119.63;;;-145.10;95.23
56334;BME280;42240;53.626;55.886;2022-12-11T07:29:00;80117.66;;;-145.10;95.58
56334;BME280;42240;53.626;55.886;2022-12-11T07:30:34;80099.84;;;-145.10;96.23
56334;BME280;42240;53.626;55.886;2022-12-11T07:32:09;80097.88;;;-145.10;96.95
56334;BME280;42240;53.626;55.886;2022-12-11T07:33:43;80093.91;;;-145.10;96.56
56334;BME280;42240;53.626;55.886;2022-12-11T07:35:17;80087.97;;;-145.10;96.98
56334;BME280;42240;53.626;55.886;2022-12-11T07:36:51;80109.75;;;-145.10;96.77
56334;BME280;42240;53.626;55.886;2022-12-11T07:38:24;80074.13;;;-145.10;96.67
56334;BME280;42240;53.626;55.886;2022-12-11T07:39:58;80070.16;;;-145.10;96.17
56334;BME280;42240;53.626;55.886;2022-12-11T07:41:31;80060.28;;;-145.10;96.38
56334;BME280;42240;53.626;55.886;2022-12-11T07:43:05;80068.19;;;-145.10;96.09
56334;BME280;42240;53.626;55.886;2022-12-11T07:44:39;80089.97;;;-145.10;96.31
56334;BME280;42240;53.626;55.886;2022-12-11T07:46:15;80101.84;;;-145.10;96.51
56334;BME280;42240;53.626;55.886;2022-12-11T07:47:50;80111.72;;;-145.10;96.77
56334;BME280;42240;53.626;55.886;2022-12-11T07:49:24;80101.84;;;-145.10;97.01
56334;BME280;42240;53.626;55.886;2022-12-11T07:51:09;80123.59;;;-145.10;96.71
56334;BME280;42240;53.626;55.886;2022-12-11T07:52:45;80113.72;;;-145.10;96.94
56334;BME280;42240;53.626;55.886;2022-12-11T07:54:21;80121.63;;;-145.10;96.81
56334;BME280;42240;53.626;55.886;2022-12-11T07:55:58;80093.91;;;-145.10;96.73
56334;BME280;42240;53.626;55.886;2022-12-11T07:57:31;80101.84;;;-145.10;95.99
56334;BME280;42240;53.626;55.886;2022-12-11T07:59:06;80084.03;;;-145.10;96.26
56334;BME280;42240;53.626;55.886;2022-12-11T08:00:43;80062.25;;;-145.10;96.17
56334;BME280;42240;53.626;55.886;2022-12-11T08:02:20;80044.44;;;-145.10;96.01
56334;BME280;42240;53.626;55.886;2022-12-11T08:03:54;80058.28;;;-145.10;95.32
56334;BME280;42240;53.626;55.886;2022-12-11T08:05:29;80093.91;;;-145.10;94.65
56334;BME280;42240;53.626;55.886;2022-12-11T08:07:03;80089.97;;;-145.10;95.96
56334;BME280;42240;53.626;55.886;2022-12-11T08:08:38;80115.69;;;-145.10;95.68
56334;BME280;42240;53.626;55.886;2022-12-11T08:10:16;80093.91;;;-145.10;96.82
56334;BME280;42240;53.626;55.886;2022-12-11T08:11:53;80078.09;;;-145.10;97.44
56334;BME280;42240;53.626;55.886;2022-12-11T08:13:27;80082.03;;;-145.10;96.11
56334;BME280;42240;53.626;55.886;2022-12-11T08:15:01;80091.94;;;-145.10;96.47
56334;BME280;42240;53.626;55.886;2022-12-11T08:16:34;80149.34;;;-145.10;95.92
56334;BME280;42240;53.626;55.886;2022-12-11T08:18:08;80149.34;;;-145.10;97.45
56334;BME280;42240;53.626;55.886;2022-12-11T08:19:42;80141.41;;;-145.10;98.02
56334;BME280;42240;53.626;55.886;2022-12-11T08:21:26;80157.25;;;-145.10;98.46